sensor_id;sensor_type;location;lat;lon;timestamp;P1;durP1;ratioP1;P2;durP2;ratioP2
76896;SDS011;65856;52.178;21.176;2023-02-28T00:00:22;28.60;;;11.50;;
76896;SDS011;65856;52.178;21.176;2023-02-28T00:05:24;32.20;;;12.70;;
76896;SDS011;65856;52.178;21.176;2023-02-28T00:07:56;30.30;;;12.30;;
76896;SDS011;65856;52.178;21.176;2023-02-28T00:10:28;33.60;;;13.10;;
76896;SDS011;65856;52.178;21.176;2023-02-28T00:13:03;33.10;;;12.30;;
76896;SDS011;65856;52.178;21.176;2023-02-28T00:15:35;32.40;;;13.40;;
76896;SDS011;65856;52.178;21.176;2023-02-28T00:18:06;33.80;;;12.60;;
76896;SDS011;65856;52.178;21.176;2023-02-28T00:20:37;34.90;;;12.90;;
76896;SDS011;65856;52.178;21.176;2023-02-28T00:23:09;27.20;;;11.80;;
76896;SDS011;65856;52.178;21.176;2023-02-28T00:25:40;25.90;;;11.80;;
76896;SDS011;65856;52.178;21.176;2023-02-28T00:28:10;31.60;;;12.40;;
76896;SDS011;65856;52.178;21.176;2023-02-28T00:30:41;27.80;;;11.20;;
76896;SDS011;65856;52.178;21.176;2023-02-28T00:33:12;31.70;;;12.20;;
76896;SDS011;65856;52.178;21.176;2023-02-28T00:35:44;29.50;;;11.40;;
76896;SDS011;65856;52.178;21.176;2023-02-28T00:38:16;24.90;;;11.10;;
76896;SDS011;65856;52.178;21.176;2023-02-28T00:40:47;28.40;;;11.90;;
76896;SDS011;65856;52.178;21.176;2023-02-28T00:43:18;25.40;;;11.00;;
76896;SDS011;65856;52.178;21.176;2023-02-28T00:45:48;28.00;;;11.50;;
76896;SDS011;65856;52.178;21.176;2023-02-28T00:48:19;25.60;;;11.20;;
76896;SDS011;65856;52.178;21.176;2023-02-28T00:50:51;26.50;;;10.90;;
76896;SDS011;65856;52.178;21.176;2023-02-28T00:53:21;24.60;;;11.10;;
76896;SDS011;65856;52.178;21.176;2023-02-28T00:55:52;25.70;;;11.00;;
76896;SDS011;65856;52.178;21.176;2023-02-28T00:58:23;31.10;;;11.70;;
76896;SDS011;65856;52.178;21.176;2023-02-28T01:00:54;33.40;;;13.70;;
76896;SDS011;65856;52.178;21.176;2023-02-28T01:03:25;37.60;;;14.10;;
76896;SDS011;65856;52.178;21.176;2023-02-28T01:05:56;33.40;;;13.70;;
76896;SDS011;65856;52.178;21.176;2023-02-28T01:08:27;26.90;;;11.50;;
76896;SDS011;65856;52.178;21.176;2023-02-28T01:11:06;30.90;;;12.90;;
76896;SDS011;65856;52.178;21.176;2023-02-28T01:13:39;32.70;;;13.70;;
76896;SDS011;65856;52.178;21.176;2023-02-28T01:16:10;35.40;;;14.10;;
76896;SDS011;65856;52.178;21.176;2023-02-28T01:18:41;33.50;;;13.60;;
76896;SDS011;65856;52.178;21.176;2023-02-28T01:21:14;31.90;;;12.60;;
76896;SDS011;65856;52.178;21.176;2023-02-28T01:23:46;34.80;;;12.90;;
76896;SDS011;65856;52.178;21.176;2023-02-28T01:26:20;34.80;;;14.00;;
76896;SDS011;65856;52.178;21.176;2023-02-28T01:28:52;36.80;;;14.80;;
76896;SDS011;65856;52.178;21.176;2023-02-28T01:33:53;28.00;;;11.20;;
76896;SDS011;65856;52.178;21.176;2023-02-28T01:36:24;33.00;;;13.20;;
76896;SDS011;65856;52.178;21.176;2023-02-28T01:38:55;35.80;;;13.40;;
76896;SDS011;65856;52.178;21.176;2023-02-28T01:41:27;33.20;;;13.90;;
76896;SDS011;65856;52.178;21.176;2023-02-28T01:44:04;32.40;;;13.30;;
76896;SDS011;65856;52.178;21.176;2023-02-28T01:46:36;32.50;;;11.80;;
76896;SDS011;65856;52.178;21.176;2023-02-28T01:49:11;34.70;;;13.30;;
76896;SDS011;65856;52.178;21.176;2023-02-28T01:51:46;32.60;;;12.70;;
76896;SDS011;65856;52.178;21.176;2023-02-28T01:54:22;32.00;;;13.20;;
76896;SDS011;65856;52.178;21.176;2023-02-28T01:56:57;27.70;;;12.80;;
76896;SDS011;65856;52.178;21.176;2023-02-28T01:59:33;31.70;;;12.30;;
76896;SDS011;65856;52.178;21.176;2023-02-28T02:02:08;31.10;;;12.60;;
76896;SDS011;65856;52.178;21.176;2023-02-28T02:04:43;29.50;;;12.50;;
76896;SDS011;65856;52.178;21.176;2023-02-28T02:07:19;31.50;;;12.90;;
76896;SDS011;65856;52.178;21.176;2023-02-28T02:10:01;31.80;;;12.70;;
76896;SDS011;65856;52.178;21.176;2023-02-28T02:12:46;33.60;;;13.20;;
76896;SDS011;65856;52.178;21.176;2023-02-28T02:18:05;30.20;;;11.30;;
76896;SDS011;65856;52.178;21.176;2023-02-28T02:24:07;30.60;;;12.60;;
76896;SDS011;65856;52.178;21.176;2023-02-28T02:27:13;33.40;;;13.00;;
76896;SDS011;65856;52.178;21.176;2023-02-28T02:30:19;28.70;;;12.10;;
76896;SDS011;65856;52.178;21.176;2023-02-28T02:33:41;28.80;;;12.20;;
76896;SDS011;65856;52.178;21.176;2023-02-28T02:36:29;34.50;;;12.70;;
76896;SDS011;65856;52.178;21.176;2023-02-28T02:39:11;35.00;;;14.50;;
76896;SDS011;65856;52.178;21.176;2023-02-28T02:41:51;34.10;;;13.90;;
76896;SDS011;65856;52.178;21.176;2023-02-28T02:44:25;33.50;;;13.80;;
76896;SDS011;65856;52.178;21.176;2023-02-28T02:47:02;33.30;;;13.80;;
76896;SDS011;65856;52.178;21.176;2023-02-28T02:49:38;29.90;;;12.50;;
76896;SDS011;65856;52.178;21.176;2023-02-28T02:52:14;29.40;;;12.20;;
76896;SDS011;65856;52.178;21.176;2023-02-28T02:54:52;28.00;;;12.40;;
76896;SDS011;65856;52.178;21.176;2023-02-28T02:57:29;34.10;;;12.80;;
76896;SDS011;65856;52.178;21.176;2023-02-28T03:00:05;34.50;;;13.70;;
76896;SDS011;65856;52.178;21.176;2023-02-28T03:02:42;34.30;;;13.30;;
76896;SDS011;65856;52.178;21.176;2023-02-28T03:07:49;27.70;;;10.80;;
76896;SDS011;65856;52.178;21.176;2023-02-28T03:10:36;27.20;;;11.50;;
76896;SDS011;65856;52.178;21.176;2023-02-28T03:13:24;28.70;;;11.00;;
76896;SDS011;65856;52.178;21.176;2023-02-28T03:16:19;28.80;;;11.40;;
76896;SDS011;65856;52.178;21.176;2023-02-28T03:19:06;30.00;;;11.80;;
76896;SDS011;65856;52.178;21.176;2023-02-28T03:22:19;28.10;;;11.60;;
76896;SDS011;65856;52.178;21.176;2023-02-28T03:25:04;28.70;;;11.60;;
76896;SDS011;65856;52.178;21.176;2023-02-28T03:30:22;26.20;;;11.20;;
76896;SDS011;65856;52.178;21.176;2023-02-28T03:32:59;24.60;;;11.00;;
76896;SDS011;65856;52.178;21.176;2023-02-28T03:35:37;27.30;;;10.70;;
76896;SDS011;65856;52.178;21.176;2023-02-28T03:38:14;28.00;;;11.70;;
76896;SDS011;65856;52.178;21.176;2023-02-28T03:40:51;29.90;;;12.10;;
76896;SDS011;65856;52.178;21.176;2023-02-28T03:43:31;25.70;;;11.90;;
76896;SDS011;65856;52.178;21.176;2023-02-28T03:46:10;26.10;;;11.40;;
76896;SDS011;65856;52.178;21.176;2023-02-28T03:48:51;24.00;;;10.90;;
76896;SDS011;65856;52.178;21.176;2023-02-28T03:51:29;26.10;;;11.10;;
76896;SDS011;65856;52.178;21.176;2023-02-28T03:54:06;29.10;;;11.90;;
76896;SDS011;65856;52.178;21.176;2023-02-28T03:56:43;27.40;;;11.10;;
76896;SDS011;65856;52.178;21.176;2023-02-28T03:59:25;28.00;;;11.10;;
76896;SDS011;65856;52.178;21.176;2023-02-28T04:01:59;24.70;;;11.50;;
76896;SDS011;65856;52.178;21.176;2023-02-28T04:04:30;27.40;;;11.80;;
76896;SDS011;65856;52.178;21.176;2023-02-28T04:07:07;25.90;;;10.80;;
76896;SDS011;65856;52.178;21.176;2023-02-28T04:09:40;29.30;;;11.50;;
76896;SDS011;65856;52.178;21.176;2023-02-28T04:12:11;22.40;;;10.70;;
76896;SDS011;65856;52.178;21.176;2023-02-28T04:14:42;27.60;;;10.50;;
76896;SDS011;65856;52.178;21.176;2023-02-28T04:17:13;25.20;;;10.40;;
76896;SDS011;65856;52.178;21.176;2023-02-28T04:19:44;26.80;;;11.20;;
76896;SDS011;65856;52.178;21.176;2023-02-28T04:22:14;31.20;;;11.00;;
76896;SDS011;65856;52.178;21.176;2023-02-28T04:24:46;25.90;;;10.40;;
76896;SDS011;65856;52.178;21.176;2023-02-28T04:27:17;24.50;;;10.60;;
76896;SDS011;65856;52.178;21.176;2023-02-28T04:29:48;22.30;;;9.90;;
76896;SDS011;65856;52.178;21.176;2023-02-28T04:32:18;21.90;;;9.90;;
76896;SDS011;65856;52.178;21.176;2023-02-28T04:34:49;21.50;;;9.70;;
76896;SDS011;65856;52.178;21.176;2023-02-28T04:37:20;22.00;;;9.50;;
76896;SDS011;65856;52.178;21.176;2023-02-28T04:39:55;23.70;;;10.50;;
76896;SDS011;65856;52.178;21.176;2023-02-28T04:42:26;25.90;;;11.00;;
76896;SDS011;65856;52.178;21.176;2023-02-28T04:45:04;28.80;;;11.70;;
76896;SDS011;65856;52.178;21.176;2023-02-28T04:47:38;24.20;;;10.50;;
76896;SDS011;65856;52.178;21.176;2023-02-28T04:50:10;23.50;;;10.30;;
76896;SDS011;65856;52.178;21.176;2023-02-28T04:52:41;24.60;;;10.30;;
76896;SDS011;65856;52.178;21.176;2023-02-28T04:55:12;23.20;;;10.10;;
76896;SDS011;65856;52.178;21.176;2023-02-28T04:57:43;25.80;;;10.80;;
76896;SDS011;65856;52.178;21.176;2023-02-28T05:00:15;23.70;;;9.60;;
76896;SDS011;65856;52.178;21.176;2023-02-28T05:02:46;25.30;;;10.60;;
76896;SDS011;65856;52.178;21.176;2023-02-28T05:05:17;26.20;;;10.30;;
76896;SDS011;65856;52.178;21.176;2023-02-28T05:07:48;23.00;;;10.40;;
76896;SDS011;65856;52.178;21.176;2023-02-28T05:10:19;22.80;;;10.40;;
76896;SDS011;65856;52.178;21.176;2023-02-28T05:12:50;18.90;;;8.90;;
76896;SDS011;65856;52.178;21.176;2023-02-28T05:15:21;23.30;;;10.40;;
76896;SDS011;65856;52.178;21.176;2023-02-28T05:17:52;21.70;;;10.40;;
76896;SDS011;65856;52.178;21.176;2023-02-28T05:20:23;24.10;;;9.90;;
76896;SDS011;65856;52.178;21.176;2023-02-28T05:22:53;25.20;;;10.10;;
76896;SDS011;65856;52.178;21.176;2023-02-28T05:25:25;23.20;;;10.20;;
76896;SDS011;65856;52.178;21.176;2023-02-28T05:27:56;20.80;;;9.50;;
76896;SDS011;65856;52.178;21.176;2023-02-28T05:30:27;24.40;;;10.00;;
76896;SDS011;65856;52.178;21.176;2023-02-28T05:32:57;20.60;;;9.40;;
76896;SDS011;65856;52.178;21.176;2023-02-28T05:35:28;23.30;;;9.10;;
76896;SDS011;65856;52.178;21.176;2023-02-28T05:37:59;22.70;;;8.80;;
76896;SDS011;65856;52.178;21.176;2023-02-28T05:40:30;22.90;;;9.40;;
76896;SDS011;65856;52.178;21.176;2023-02-28T05:43:01;23.10;;;9.30;;
76896;SDS011;65856;52.178;21.176;2023-02-28T05:45:32;22.30;;;9.90;;
76896;SDS011;65856;52.178;21.176;2023-02-28T05:48:04;24.50;;;9.20;;
76896;SDS011;65856;52.178;21.176;2023-02-28T05:50:37;24.70;;;9.40;;
76896;SDS011;65856;52.178;21.176;2023-02-28T05:53:07;25.10;;;10.00;;
76896;SDS011;65856;52.178;21.176;2023-02-28T05:55:38;26.40;;;10.90;;
76896;SDS011;65856;52.178;21.176;2023-02-28T05:58:10;28.70;;;11.00;;
76896;SDS011;65856;52.178;21.176;2023-02-28T06:00:40;26.50;;;11.30;;
76896;SDS011;65856;52.178;21.176;2023-02-28T06:03:11;22.50;;;10.60;;
76896;SDS011;65856;52.178;21.176;2023-02-28T06:05:42;22.70;;;10.80;;
76896;SDS011;65856;52.178;21.176;2023-02-28T06:08:13;28.60;;;12.00;;
76896;SDS011;65856;52.178;21.176;2023-02-28T06:10:44;26.80;;;12.00;;
76896;SDS011;65856;52.178;21.176;2023-02-28T06:13:15;30.20;;;12.00;;
76896;SDS011;65856;52.178;21.176;2023-02-28T06:15:45;25.60;;;11.60;;
76896;SDS011;65856;52.178;21.176;2023-02-28T06:18:16;22.60;;;10.80;;
76896;SDS011;65856;52.178;21.176;2023-02-28T06:20:53;29.40;;;11.50;;
76896;SDS011;65856;52.178;21.176;2023-02-28T06:23:24;27.60;;;10.80;;
76896;SDS011;65856;52.178;21.176;2023-02-28T06:25:55;30.00;;;12.40;;
76896;SDS011;65856;52.178;21.176;2023-02-28T06:28:27;29.00;;;12.10;;
76896;SDS011;65856;52.178;21.176;2023-02-28T06:30:57;26.30;;;12.00;;
76896;SDS011;65856;52.178;21.176;2023-02-28T06:33:28;29.10;;;12.50;;
76896;SDS011;65856;52.178;21.176;2023-02-28T06:35:59;30.40;;;11.80;;
76896;SDS011;65856;52.178;21.176;2023-02-28T06:38:30;29.50;;;12.30;;
76896;SDS011;65856;52.178;21.176;2023-02-28T06:41:02;26.80;;;11.60;;
76896;SDS011;65856;52.178;21.176;2023-02-28T06:43:36;24.10;;;11.10;;
76896;SDS011;65856;52.178;21.176;2023-02-28T06:46:10;27.80;;;11.30;;
76896;SDS011;65856;52.178;21.176;2023-02-28T06:48:42;23.40;;;11.10;;
76896;SDS011;65856;52.178;21.176;2023-02-28T06:51:16;24.20;;;10.90;;
76896;SDS011;65856;52.178;21.176;2023-02-28T06:53:50;27.90;;;11.70;;
76896;SDS011;65856;52.178;21.176;2023-02-28T06:56:21;22.30;;;10.80;;
76896;SDS011;65856;52.178;21.176;2023-02-28T06:58:52;24.30;;;11.60;;
76896;SDS011;65856;52.178;21.176;2023-02-28T07:01:23;22.80;;;9.40;;
76896;SDS011;65856;52.178;21.176;2023-02-28T07:03:56;17.50;;;8.80;;
76896;SDS011;65856;52.178;21.176;2023-02-28T07:06:28;20.70;;;9.60;;
76896;SDS011;65856;52.178;21.176;2023-02-28T07:08:59;29.80;;;11.70;;
76896;SDS011;65856;52.178;21.176;2023-02-28T07:11:30;25.30;;;11.40;;
76896;SDS011;65856;52.178;21.176;2023-02-28T07:14:01;28.00;;;11.90;;
76896;SDS011;65856;52.178;21.176;2023-02-28T07:16:32;20.10;;;9.20;;
76896;SDS011;65856;52.178;21.176;2023-02-28T07:21:33;17.90;;;8.50;;
76896;SDS011;65856;52.178;21.176;2023-02-28T07:24:04;19.40;;;9.00;;
76896;SDS011;65856;52.178;21.176;2023-02-28T07:29:05;12.80;;;6.30;;
76896;SDS011;65856;52.178;21.176;2023-02-28T07:31:36;16.60;;;7.30;;
76896;SDS011;65856;52.178;21.176;2023-02-28T07:34:07;15.00;;;6.20;;
76896;SDS011;65856;52.178;21.176;2023-02-28T07:36:37;12.10;;;5.80;;
76896;SDS011;65856;52.178;21.176;2023-02-28T07:39:08;12.50;;;6.70;;
76896;SDS011;65856;52.178;21.176;2023-02-28T07:41:39;10.80;;;5.80;;
76896;SDS011;65856;52.178;21.176;2023-02-28T07:44:12;15.80;;;6.10;;
76896;SDS011;65856;52.178;21.176;2023-02-28T07:46:43;10.90;;;5.90;;
76896;SDS011;65856;52.178;21.176;2023-02-28T07:49:14;10.00;;;5.50;;
76896;SDS011;65856;52.178;21.176;2023-02-28T07:51:45;8.80;;;5.00;;
76896;SDS011;65856;52.178;21.176;2023-02-28T07:54:16;9.40;;;5.30;;
76896;SDS011;65856;52.178;21.176;2023-02-28T07:56:46;13.00;;;5.50;;
76896;SDS011;65856;52.178;21.176;2023-02-28T07:59:17;9.00;;;5.20;;
76896;SDS011;65856;52.178;21.176;2023-02-28T08:01:48;7.80;;;4.80;;
76896;SDS011;65856;52.178;21.176;2023-02-28T08:04:19;10.30;;;4.70;;
76896;SDS011;65856;52.178;21.176;2023-02-28T08:06:50;11.00;;;5.30;;
76896;SDS011;65856;52.178;21.176;2023-02-28T08:09:21;9.30;;;4.70;;
76896;SDS011;65856;52.178;21.176;2023-02-28T08:11:52;11.00;;;5.50;;
76896;SDS011;65856;52.178;21.176;2023-02-28T08:14:24;8.60;;;5.30;;
76896;SDS011;65856;52.178;21.176;2023-02-28T08:16:54;14.20;;;6.80;;
76896;SDS011;65856;52.178;21.176;2023-02-28T08:19:25;9.10;;;5.50;;
76896;SDS011;65856;52.178;21.176;2023-02-28T08:21:56;11.60;;;6.00;;
76896;SDS011;65856;52.178;21.176;2023-02-28T08:24:27;8.60;;;5.70;;
76896;SDS011;65856;52.178;21.176;2023-02-28T08:26:59;11.20;;;6.10;;
76896;SDS011;65856;52.178;21.176;2023-02-28T08:29:29;9.40;;;5.90;;
76896;SDS011;65856;52.178;21.176;2023-02-28T08:32:00;10.60;;;5.70;;
76896;SDS011;65856;52.178;21.176;2023-02-28T08:34:31;13.20;;;6.80;;
76896;SDS011;65856;52.178;21.176;2023-02-28T08:37:02;11.10;;;6.10;;
76896;SDS011;65856;52.178;21.176;2023-02-28T08:39:35;11.60;;;6.30;;
76896;SDS011;65856;52.178;21.176;2023-02-28T08:42:06;12.90;;;6.50;;
76896;SDS011;65856;52.178;21.176;2023-02-28T08:44:37;11.50;;;6.10;;
76896;SDS011;65856;52.178;21.176;2023-02-28T08:47:08;10.40;;;6.70;;
76896;SDS011;65856;52.178;21.176;2023-02-28T08:49:39;12.10;;;6.50;;
76896;SDS011;65856;52.178;21.176;2023-02-28T08:52:10;10.70;;;6.60;;
76896;SDS011;65856;52.178;21.176;2023-02-28T08:54:41;13.30;;;6.70;;
76896;SDS011;65856;52.178;21.176;2023-02-28T08:57:11;11.90;;;6.20;;
76896;SDS011;65856;52.178;21.176;2023-02-28T08:59:42;11.40;;;6.60;;
76896;SDS011;65856;52.178;21.176;2023-02-28T09:02:14;12.80;;;6.20;;
76896;SDS011;65856;52.178;21.176;2023-02-28T09:04:45;12.70;;;6.50;;
76896;SDS011;65856;52.178;21.176;2023-02-28T09:07:16;12.80;;;7.80;;
76896;SDS011;65856;52.178;21.176;2023-02-28T09:09:46;10.70;;;6.60;;
76896;SDS011;65856;52.178;21.176;2023-02-28T09:12:24;10.60;;;6.90;;
76896;SDS011;65856;52.178;21.176;2023-02-28T09:14:56;9.50;;;6.50;;
76896;SDS011;65856;52.178;21.176;2023-02-28T09:17:27;10.70;;;6.90;;
76896;SDS011;65856;52.178;21.176;2023-02-28T09:19:58;13.50;;;7.60;;
76896;SDS011;65856;52.178;21.176;2023-02-28T09:22:28;10.70;;;6.40;;
76896;SDS011;65856;52.178;21.176;2023-02-28T09:25:00;10.40;;;6.30;;
76896;SDS011;65856;52.178;21.176;2023-02-28T09:27:31;11.70;;;6.30;;
76896;SDS011;65856;52.178;21.176;2023-02-28T09:30:02;10.80;;;6.60;;
76896;SDS011;65856;52.178;21.176;2023-02-28T09:32:33;11.00;;;6.70;;
76896;SDS011;65856;52.178;21.176;2023-02-28T09:35:05;14.70;;;6.50;;
76896;SDS011;65856;52.178;21.176;2023-02-28T09:37:41;11.40;;;6.40;;
76896;SDS011;65856;52.178;21.176;2023-02-28T09:40:13;12.00;;;6.70;;
76896;SDS011;65856;52.178;21.176;2023-02-28T09:42:49;11.00;;;6.40;;
76896;SDS011;65856;52.178;21.176;2023-02-28T09:45:24;12.30;;;7.20;;
76896;SDS011;65856;52.178;21.176;2023-02-28T09:48:01;12.10;;;7.20;;
76896;SDS011;65856;52.178;21.176;2023-02-28T09:50:40;14.60;;;7.90;;
76896;SDS011;65856;52.178;21.176;2023-02-28T09:53:21;12.70;;;7.40;;
76896;SDS011;65856;52.178;21.176;2023-02-28T09:55:58;11.90;;;6.80;;
76896;SDS011;65856;52.178;21.176;2023-02-28T09:58:33;13.00;;;6.60;;
76896;SDS011;65856;52.178;21.176;2023-02-28T10:01:18;14.30;;;8.10;;
76896;SDS011;65856;52.178;21.176;2023-02-28T10:03:57;12.90;;;7.50;;
76896;SDS011;65856;52.178;21.176;2023-02-28T10:06:38;12.80;;;7.40;;
76896;SDS011;65856;52.178;21.176;2023-02-28T10:09:17;15.30;;;7.30;;
76896;SDS011;65856;52.178;21.176;2023-02-28T10:11:54;17.40;;;7.90;;
76896;SDS011;65856;52.178;21.176;2023-02-28T10:14:33;11.10;;;7.40;;
76896;SDS011;65856;52.178;21.176;2023-02-28T10:17:12;13.60;;;7.70;;
76896;SDS011;65856;52.178;21.176;2023-02-28T10:19:58;11.60;;;7.20;;
76896;SDS011;65856;52.178;21.176;2023-02-28T10:22:40;11.30;;;7.30;;
76896;SDS011;65856;52.178;21.176;2023-02-28T10:25:21;12.80;;;7.30;;
76896;SDS011;65856;52.178;21.176;2023-02-28T10:27:56;10.40;;;6.70;;
76896;SDS011;65856;52.178;21.176;2023-02-28T10:30:30;13.00;;;7.90;;
76896;SDS011;65856;52.178;21.176;2023-02-28T10:33:01;13.20;;;7.30;;
76896;SDS011;65856;52.178;21.176;2023-02-28T10:35:32;12.20;;;7.60;;
76896;SDS011;65856;52.178;21.176;2023-02-28T10:38:15;12.60;;;7.80;;
76896;SDS011;65856;52.178;21.176;2023-02-28T10:40:50;13.30;;;8.10;;
76896;SDS011;65856;52.178;21.176;2023-02-28T10:43:31;12.50;;;7.20;;
76896;SDS011;65856;52.178;21.176;2023-02-28T10:46:11;12.70;;;7.60;;
76896;SDS011;65856;52.178;21.176;2023-02-28T10:49:03;12.70;;;7.50;;
76896;SDS011;65856;52.178;21.176;2023-02-28T10:51:42;11.00;;;7.00;;
76896;SDS011;65856;52.178;21.176;2023-02-28T10:54:19;13.90;;;7.40;;
76896;SDS011;65856;52.178;21.176;2023-02-28T10:57:15;11.60;;;7.00;;
76896;SDS011;65856;52.178;21.176;2023-02-28T10:59:51;13.00;;;7.60;;
76896;SDS011;65856;52.178;21.176;2023-02-28T11:02:36;12.10;;;6.90;;
76896;SDS011;65856;52.178;21.176;2023-02-28T11:05:28;12.50;;;7.40;;
76896;SDS011;65856;52.178;21.176;2023-02-28T11:08:05;13.20;;;7.80;;
76896;SDS011;65856;52.178;21.176;2023-02-28T11:10:45;16.00;;;7.60;;
76896;SDS011;65856;52.178;21.176;2023-02-28T11:13:21;13.40;;;7.00;;
76896;SDS011;65856;52.178;21.176;2023-02-28T11:16:00;12.90;;;7.20;;
76896;SDS011;65856;52.178;21.176;2023-02-28T11:18:38;13.10;;;7.30;;
76896;SDS011;65856;52.178;21.176;2023-02-28T11:21:17;13.00;;;7.50;;
76896;SDS011;65856;52.178;21.176;2023-02-28T11:23:54;12.00;;;7.20;;
76896;SDS011;65856;52.178;21.176;2023-02-28T11:26:41;17.30;;;8.40;;
76896;SDS011;65856;52.178;21.176;2023-02-28T11:29:20;11.10;;;7.30;;
76896;SDS011;65856;52.178;21.176;2023-02-28T11:32:05;14.30;;;8.00;;
76896;SDS011;65856;52.178;21.176;2023-02-28T11:34:42;11.60;;;7.40;;
76896;SDS011;65856;52.178;21.176;2023-02-28T11:39:46;13.50;;;7.60;;
76896;SDS011;65856;52.178;21.176;2023-02-28T11:45:18;13.00;;;7.50;;
76896;SDS011;65856;52.178;21.176;2023-02-28T11:50:49;15.60;;;7.30;;
76896;SDS011;65856;52.178;21.176;2023-02-28T11:53:51;12.60;;;7.30;;
76896;SDS011;65856;52.178;21.176;2023-02-28T11:56:37;14.60;;;8.40;;
76896;SDS011;65856;52.178;21.176;2023-02-28T11:59:26;14.00;;;7.90;;
76896;SDS011;65856;52.178;21.176;2023-02-28T12:02:25;12.30;;;7.40;;
76896;SDS011;65856;52.178;21.176;2023-02-28T12:05:15;13.00;;;7.10;;
76896;SDS011;65856;52.178;21.176;2023-02-28T12:08:01;15.30;;;7.90;;
76896;SDS011;65856;52.178;21.176;2023-02-28T12:10:49;16.20;;;7.90;;
76896;SDS011;65856;52.178;21.176;2023-02-28T12:13:38;13.80;;;7.70;;
76896;SDS011;65856;52.178;21.176;2023-02-28T12:16:31;13.50;;;7.60;;
76896;SDS011;65856;52.178;21.176;2023-02-28T12:19:18;12.20;;;7.50;;
76896;SDS011;65856;52.178;21.176;2023-02-28T12:25:24;19.50;;;7.50;;
76896;SDS011;65856;52.178;21.176;2023-02-28T12:28:10;19.70;;;7.40;;
76896;SDS011;65856;52.178;21.176;2023-02-28T12:30:49;11.80;;;6.90;;
76896;SDS011;65856;52.178;21.176;2023-02-28T12:33:28;12.10;;;6.90;;
76896;SDS011;65856;52.178;21.176;2023-02-28T12:36:08;11.70;;;7.60;;
76896;SDS011;65856;52.178;21.176;2023-02-28T12:38:47;11.70;;;7.50;;
76896;SDS011;65856;52.178;21.176;2023-02-28T12:41:25;13.60;;;7.10;;
76896;SDS011;65856;52.178;21.176;2023-02-28T12:44:05;17.60;;;8.20;;
76896;SDS011;65856;52.178;21.176;2023-02-28T12:46:42;17.80;;;7.70;;
76896;SDS011;65856;52.178;21.176;2023-02-28T12:49:21;13.10;;;7.70;;
76896;SDS011;65856;52.178;21.176;2023-02-28T12:54:35;15.70;;;7.60;;
76896;SDS011;65856;52.178;21.176;2023-02-28T12:57:15;13.90;;;8.40;;
76896;SDS011;65856;52.178;21.176;2023-02-28T12:59:56;14.10;;;8.20;;
76896;SDS011;65856;52.178;21.176;2023-02-28T13:02:54;16.10;;;7.80;;
76896;SDS011;65856;52.178;21.176;2023-02-28T13:06:06;14.70;;;7.90;;
76896;SDS011;65856;52.178;21.176;2023-02-28T13:09:04;13.10;;;8.40;;
76896;SDS011;65856;52.178;21.176;2023-02-28T13:11:45;14.90;;;8.40;;
76896;SDS011;65856;52.178;21.176;2023-02-28T13:14:26;14.70;;;8.40;;
76896;SDS011;65856;52.178;21.176;2023-02-28T13:19:34;14.80;;;7.70;;
76896;SDS011;65856;52.178;21.176;2023-02-28T13:22:10;16.10;;;8.50;;
76896;SDS011;65856;52.178;21.176;2023-02-28T13:24:50;17.20;;;8.90;;
76896;SDS011;65856;52.178;21.176;2023-02-28T13:27:34;18.80;;;9.10;;
76896;SDS011;65856;52.178;21.176;2023-02-28T13:33:31;18.20;;;9.30;;
76896;SDS011;65856;52.178;21.176;2023-02-28T13:38:58;17.00;;;9.00;;
76896;SDS011;65856;52.178;21.176;2023-02-28T13:48:31;17.40;;;9.00;;
76896;SDS011;65856;52.178;21.176;2023-02-28T13:50:59;16.60;;;9.00;;
76896;SDS011;65856;52.178;21.176;2023-02-28T13:54:00;16.80;;;8.70;;
76896;SDS011;65856;52.178;21.176;2023-02-28T13:56:41;13.60;;;8.30;;
76896;SDS011;65856;52.178;21.176;2023-02-28T14:02:06;14.50;;;8.00;;
76896;SDS011;65856;52.178;21.176;2023-02-28T14:05:00;14.70;;;8.10;;
76896;SDS011;65856;52.178;21.176;2023-02-28T14:10:07;22.00;;;8.10;;
76896;SDS011;65856;52.178;21.176;2023-02-28T14:12:59;16.60;;;8.40;;
76896;SDS011;65856;52.178;21.176;2023-02-28T14:15:41;16.00;;;8.40;;
76896;SDS011;65856;52.178;21.176;2023-02-28T14:18:19;13.70;;;8.30;;
76896;SDS011;65856;52.178;21.176;2023-02-28T14:20:53;15.90;;;8.70;;
76896;SDS011;65856;52.178;21.176;2023-02-28T14:23:39;18.50;;;8.80;;
76896;SDS011;65856;52.178;21.176;2023-02-28T14:26:36;13.20;;;8.10;;
76896;SDS011;65856;52.178;21.176;2023-02-28T14:32:47;15.10;;;7.80;;
76896;SDS011;65856;52.178;21.176;2023-02-28T14:35:40;16.20;;;8.60;;
76896;SDS011;65856;52.178;21.176;2023-02-28T14:38:28;15.80;;;8.70;;
76896;SDS011;65856;52.178;21.176;2023-02-28T14:41:02;23.20;;;8.80;;
76896;SDS011;65856;52.178;21.176;2023-02-28T14:43:33;14.70;;;8.40;;
76896;SDS011;65856;52.178;21.176;2023-02-28T14:46:02;15.40;;;8.50;;
76896;SDS011;65856;52.178;21.176;2023-02-28T14:48:35;21.20;;;8.70;;
76896;SDS011;65856;52.178;21.176;2023-02-28T14:51:04;18.00;;;9.00;;
76896;SDS011;65856;52.178;21.176;2023-02-28T14:53:37;15.30;;;8.50;;
76896;SDS011;65856;52.178;21.176;2023-02-28T14:56:16;15.60;;;8.50;;
76896;SDS011;65856;52.178;21.176;2023-02-28T14:58:53;14.70;;;8.40;;
76896;SDS011;65856;52.178;21.176;2023-02-28T15:01:24;17.70;;;8.80;;
76896;SDS011;65856;52.178;21.176;2023-02-28T15:04:02;17.70;;;9.00;;
76896;SDS011;65856;52.178;21.176;2023-02-28T15:06:32;16.10;;;8.90;;
76896;SDS011;65856;52.178;21.176;2023-02-28T15:09:16;17.70;;;9.10;;
76896;SDS011;65856;52.178;21.176;2023-02-28T15:11:48;19.90;;;9.20;;
76896;SDS011;65856;52.178;21.176;2023-02-28T15:14:20;15.20;;;9.10;;
76896;SDS011;65856;52.178;21.176;2023-02-28T15:16:52;16.30;;;9.00;;
76896;SDS011;65856;52.178;21.176;2023-02-28T15:19:28;15.60;;;9.10;;
76896;SDS011;65856;52.178;21.176;2023-02-28T15:22:01;16.60;;;8.60;;
76896;SDS011;65856;52.178;21.176;2023-02-28T15:24:37;19.70;;;9.40;;
76896;SDS011;65856;52.178;21.176;2023-02-28T15:27:13;19.20;;;9.20;;
76896;SDS011;65856;52.178;21.176;2023-02-28T15:29:49;18.10;;;9.30;;
76896;SDS011;65856;52.178;21.176;2023-02-28T15:32:28;16.90;;;8.80;;
76896;SDS011;65856;52.178;21.176;2023-02-28T15:34:59;23.20;;;9.50;;
76896;SDS011;65856;52.178;21.176;2023-02-28T15:37:51;18.10;;;9.10;;
76896;SDS011;65856;52.178;21.176;2023-02-28T15:40:28;16.90;;;9.50;;
76896;SDS011;65856;52.178;21.176;2023-02-28T15:43:04;21.20;;;10.10;;
76896;SDS011;65856;52.178;21.176;2023-02-28T15:45:45;19.40;;;9.90;;
76896;SDS011;65856;52.178;21.176;2023-02-28T15:48:17;19.10;;;9.50;;
76896;SDS011;65856;52.178;21.176;2023-02-28T15:50:49;18.30;;;9.40;;
76896;SDS011;65856;52.178;21.176;2023-02-28T15:53:23;17.90;;;9.40;;
76896;SDS011;65856;52.178;21.176;2023-02-28T15:55:59;19.60;;;9.10;;
76896;SDS011;65856;52.178;21.176;2023-02-28T15:58:30;18.80;;;9.20;;
76896;SDS011;65856;52.178;21.176;2023-02-28T16:01:15;18.10;;;8.90;;
76896;SDS011;65856;52.178;21.176;2023-02-28T16:03:48;20.50;;;9.20;;
76896;SDS011;65856;52.178;21.176;2023-02-28T16:06:32;18.30;;;9.60;;